Time;durP1;ratioP1;P1;durP2;ratioP2;P2;SDS_P1;SDS_P2;PMS_P1;PMS_P2;Temp;Humidity;BMP_temperature;BMP_pressure;BME280_temperature;BME280_humidity;BME280_pressure;Samples;Min_cycle;Max_cycle;Signal;HPM_P1;HPM_P2
2021/10/29 00:01:42;;;;;;;1.20;1.00;;;13.90;99.90;;;;;;5025727;28;20329;-83
2021/10/29 00:04:13;;;;;;;4.10;1.80;;;13.90;99.90;;;;;;5030036;28;20217;-83
2021/10/29 00:06:44;;;;;;;1.63;1.23;;;13.90;99.90;;;;;;5030271;28;20240;-84
2021/10/29 00:09:15;;;;;;;3.63;1.20;;;13.90;99.90;;;;;;5020067;28;20217;-84
2021/10/29 00:11:48;;;;;;;1.83;1.10;;;13.90;99.90;;;;;;5016407;28;20230;-84
2021/10/29 00:14:19;;;;;;;2.80;1.07;;;13.80;99.90;;;;;;5018078;28;20721;-85
2021/10/29 00:16:50;;;;;;;1.30;0.80;;;13.70;99.90;;;;;;5019558;28;20210;-84
2021/10/29 00:19:22;;;;;;;1.93;0.70;;;13.60;99.90;;;;;;5019536;28;20210;-83
2021/10/29 00:21:53;;;;;;;2.97;0.90;;;13.50;99.90;;;;;;5019789;28;20206;-84
2021/10/29 00:24:23;;;;;;;0.93;0.80;;;13.40;99.90;;;;;;5019121;28;20209;-84
2021/10/29 00:27:03;;;;;;;2.27;1.00;;;13.30;99.90;;;;;;5029537;28;20205;-84
2021/10/29 00:29:34;;;;;;;1.30;0.70;;;13.20;99.90;;;;;;5032463;28;20624;-83
2021/10/29 00:32:08;;;;;;;1.80;1.03;;;13.20;99.90;;;;;;5032188;28;20234;-83
2021/10/29 00:34:40;;;;;;;1.73;1.07;;;13.10;99.90;;;;;;5034683;28;20194;-83
2021/10/29 00:37:11;;;;;;;2.27;1.10;;;13.10;99.90;;;;;;5032493;28;20205;-85
2021/10/29 00:39:41;;;;;;;1.77;1.10;;;13.10;99.90;;;;;;5031684;28;20209;-82
2021/10/29 00:42:13;;;;;;;2.40;1.30;;;13.00;99.90;;;;;;5031121;28;20228;-83
2021/10/29 00:44:45;;;;;;;2.60;1.43;;;13.00;99.90;;;;;;5031489;28;20316;-83
2021/10/29 00:47:16;;;;;;;2.87;1.53;;;12.90;99.90;;;;;;5030522;28;20301;-83
2021/10/29 00:49:47;;;;;;;6.53;1.60;;;12.90;99.90;;;;;;5023362;28;20222;-84
2021/10/29 00:52:18;;;;;;;2.13;1.40;;;12.90;99.90;;;;;;5029476;28;20241;-83
2021/10/29 00:54:50;;;;;;;1.53;1.10;;;12.90;99.90;;;;;;5032410;28;20214;-83
2021/10/29 00:57:23;;;;;;;2.90;1.10;;;12.80;99.90;;;;;;5032918;28;20317;-82
2021/10/29 00:59:54;;;;;;;3.27;1.20;;;12.80;99.90;;;;;;5030468;28;20206;-82
2021/10/29 01:02:24;;;;;;;2.30;1.40;;;12.80;99.90;;;;;;5017469;28;20306;-85
2021/10/29 01:04:56;;;;;;;2.00;1.60;;;12.80;99.90;;;;;;5010520;28;20202;-87
2021/10/29 01:07:28;;;;;;;1.50;1.40;;;12.70;99.90;;;;;;5015744;28;20662;-89
2021/10/29 01:09:59;;;;;;;5.17;1.50;;;12.80;99.90;;;;;;5032907;28;20206;-87
2021/10/29 01:12:33;;;;;;;3.13;1.10;;;12.70;99.90;;;;;;5032661;28;20320;-87
2021/10/29 01:15:09;;;;;;;1.13;0.90;;;12.70;99.90;;;;;;5034438;28;20197;-88
2021/10/29 01:17:41;;;;;;;1.90;0.70;;;12.70;99.90;;;;;;5032225;28;20454;-85
2021/10/29 01:20:12;;;;;;;1.13;0.50;;;12.70;99.90;;;;;;5027978;28;20202;-87
2021/10/29 01:22:47;;;;;;;2.20;0.60;;;12.60;99.90;;;;;;5015968;28;20206;-87
2021/10/29 01:25:18;;;;;;;1.27;0.67;;;12.60;99.90;;;;;;5010541;28;20210;-89
2021/10/29 01:30:25;;;;;;;0.73;0.50;;;12.50;99.90;;;;;;5197463;22;20226;-84
2021/10/29 01:32:59;;;;;;;3.20;0.70;;;12.50;99.90;;;;;;5088277;22;20323;-87
2021/10/29 01:35:31;;;;;;;1.00;0.60;;;12.50;99.90;;;;;;5072281;28;20204;-86
2021/10/29 01:38:05;;;;;;;0.97;0.53;;;12.40;99.90;;;;;;5072854;28;20201;-87
2021/10/29 01:40:37;;;;;;;0.80;0.57;;;12.30;99.90;;;;;;5072629;28;20204;-87
2021/10/29 01:43:09;;;;;;;1.87;0.73;;;12.30;99.90;;;;;;5072773;28;20215;-86
2021/10/29 01:45:41;;;;;;;0.93;0.70;;;12.20;99.90;;;;;;5072337;28;20200;-87
2021/10/29 01:48:13;;;;;;;0.97;0.70;;;12.20;99.90;;;;;;5071567;28;20268;-87
2021/10/29 01:50:45;;;;;;;1.10;0.80;;;12.10;99.90;;;;;;5072256;28;20200;-87
2021/10/29 01:53:21;;;;;;;0.70;0.67;;;12.10;99.90;;;;;;5071876;28;20246;-90
2021/10/29 01:55:54;;;;;;;0.70;0.70;;;12.00;99.90;;;;;;5071145;28;20208;-88
2021/10/29 01:58:25;;;;;;;2.37;0.60;;;11.90;99.90;;;;;;5070985;28;20556;-87
2021/10/29 02:11:58;;;;;;;1.43;0.67;;;11.60;99.90;;;;;;5052815;28;20252;-87
2021/10/29 02:16:58;;;;;;;1.47;0.70;;;11.50;99.90;;;;;;5070828;28;20240;-88
2021/10/29 02:19:31;;;;;;;4.37;0.70;;;11.50;99.90;;;;;;5071354;28;20248;-87
2021/10/29 02:22:05;;;;;;;2.93;0.87;;;11.50;99.90;;;;;;5072902;28;20200;-86
2021/10/29 02:24:37;;;;;;;0.83;0.70;;;11.40;99.90;;;;;;5071292;28;20208;-87
2021/10/29 02:27:14;;;;;;;0.73;0.60;;;11.40;99.90;;;;;;5073288;28;20237;-87
2021/10/29 02:29:54;;;;;;;1.30;0.97;;;11.30;99.90;;;;;;5068242;28;20230;-87
2021/10/29 02:32:26;;;;;;;1.83;0.80;;;11.30;99.90;;;;;;5059424;28;20282;-88
2021/10/29 02:35:12;;;;;;;1.20;0.73;;;11.30;99.90;;;;;;5049025;28;20212;-86
2021/10/29 02:40:38;;;;;;;1.17;0.73;;;11.30;99.90;;;;;;5071781;28;20212;-87
2021/10/29 02:43:13;;;;;;;0.80;0.80;;;11.30;99.90;;;;;;5058914;28;20292;-87
2021/10/29 02:45:44;;;;;;;2.40;1.00;;;11.30;99.90;;;;;;5065682;28;20228;-87
2021/10/29 02:48:17;;;;;;;2.57;0.70;;;11.20;99.90;;;;;;5069523;28;20208;-88
2021/10/29 02:50:56;;;;;;;2.13;0.80;;;11.20;99.90;;;;;;5071330;28;20200;-88
2021/10/29 02:59:17;;;;;;;0.90;0.70;;;11.20;99.90;;;;;;5075499;28;20187;-87
2021/10/29 03:04:35;;;;;;;0.93;0.50;;;11.20;99.90;;;;;;5076458;28;20255;-87
2021/10/29 03:07:07;;;;;;;0.67;0.50;;;11.10;99.90;;;;;;5072822;28;20212;-85
2021/10/29 03:09:44;;;;;;;1.13;0.67;;;11.10;99.90;;;;;;5075266;28;20269;-86
2021/10/29 03:12:33;;;;;;;1.00;0.70;;;11.10;99.90;;;;;;5073310;28;20224;-86
2021/10/29 03:15:34;;;;;;;1.20;0.80;;;11.10;99.90;;;;;;5072137;28;20336;-87
2021/10/29 03:26:19;;;;;;;2.90;1.57;;;11.10;99.90;;;;;;5040054;28;20247;-88
2021/10/29 03:28:51;;;;;;;1.97;1.60;;;11.10;99.90;;;;;;5038507;28;20299;-88
2021/10/29 03:40:20;;;;;;;3.00;2.13;;;11.10;99.90;;;;;;5053922;28;20200;-88
2021/10/29 03:49:14;;;;;;;10.40;1.70;;;11.10;99.90;;;;;;5062691;28;20200;-87
2021/10/29 03:57:45;;;;;;;12.77;2.10;;;11.10;99.90;;;;;;5035579;28;20217;-88
2021/10/29 04:00:28;;;;;;;4.13;1.47;;;11.10;99.90;;;;;;5033469;28;20217;-89
2021/10/29 04:03:07;;;;;;;4.97;1.50;;;11.10;99.90;;;;;;5033100;28;20205;-88
2021/10/29 04:05:43;;;;;;;1.97;1.60;;;11.10;99.90;;;;;;5033577;28;20467;-87
2021/10/29 04:08:15;;;;;;;5.17;1.77;;;11.10;99.90;;;;;;5053907;28;20211;-88
2021/10/29 04:10:47;;;;;;;2.60;1.20;;;11.10;99.90;;;;;;5020466;28;20212;-87
2021/10/29 04:13:18;;;;;;;2.93;1.30;;;11.10;99.90;;;;;;5055164;28;20681;-87
2021/10/29 04:15:52;;;;;;;3.27;1.53;;;11.00;99.90;;;;;;5053662;28;20201;-87
2021/10/29 04:18:30;;;;;;;3.80;2.07;;;11.00;99.90;;;;;;5053065;28;20233;-87
2021/10/29 04:21:17;;;;;;;4.40;1.90;;;11.00;99.90;;;;;;5053305;28;20304;-87
2021/10/29 04:23:48;;;;;;;5.00;1.60;;;11.10;99.90;;;;;;5043789;28;20204;-87
2021/10/29 04:26:19;;;;;;;2.47;1.47;;;11.10;99.90;;;;;;5041830;28;20205;-86
2021/10/29 04:28:53;;;;;;;2.57;1.93;;;11.10;99.90;;;;;;5045359;28;20220;-87
2021/10/29 04:31:29;;;;;;;2.50;1.97;;;11.00;99.90;;;;;;5048766;28;20256;-87
2021/10/29 04:34:00;;;;;;;7.23;2.20;;;11.10;99.90;;;;;;5051187;28;20337;-88
2021/10/29 04:36:33;;;;;;;3.70;2.13;;;11.10;99.90;;;;;;5044659;28;20205;-87
2021/10/29 04:39:09;;;;;;;3.23;2.53;;;11.10;99.90;;;;;;5051421;28;20215;-86
2021/10/29 04:41:41;;;;;;;13.07;2.73;;;11.10;99.90;;;;;;5041077;28;20212;-88
2021/10/29 04:44:12;;;;;;;3.43;3.13;;;11.10;99.90;;;;;;5052179;28;20293;-88
2021/10/29 04:46:43;;;;;;;4.20;2.60;;;11.10;99.90;;;;;;5049939;28;20554;-88
2021/10/29 04:49:14;;;;;;;3.37;2.83;;;11.00;99.90;;;;;;5041941;28;20256;-86
2021/10/29 04:51:47;;;;;;;8.40;3.50;;;11.00;99.90;;;;;;5022539;28;20210;-88
2021/10/29 04:54:19;;;;;;;7.93;3.50;;;11.00;99.90;;;;;;5021442;28;20241;-87
2021/10/29 04:56:51;;;;;;;3.73;3.10;;;11.10;99.90;;;;;;5034298;28;20201;-88
2021/10/29 04:59:23;;;;;;;4.83;3.33;;;11.10;99.90;;;;;;5039930;28;20572;-88
2021/10/29 05:01:54;;;;;;;3.13;2.33;;;11.10;99.90;;;;;;5059088;28;20209;-87
2021/10/29 05:04:27;;;;;;;4.30;2.60;;;11.10;99.90;;;;;;5042320;28;20235;-85
2021/10/29 05:07:00;;;;;;;4.13;3.30;;;11.10;99.90;;;;;;5038506;28;20716;-87
2021/10/29 05:12:23;;;;;;;6.43;3.40;;;11.10;99.90;;;;;;5049738;28;20228;-87
2021/10/29 05:14:55;;;;;;;4.53;3.53;;;11.10;99.90;;;;;;5024869;28;20219;-88
2021/10/29 05:17:26;;;;;;;4.30;3.10;;;11.10;99.90;;;;;;5040370;28;20232;-88
2021/10/29 05:19:57;;;;;;;3.50;3.20;;;11.00;99.90;;;;;;5040323;28;20205;-87
2021/10/29 05:22:31;;;;;;;4.20;3.77;;;11.00;99.90;;;;;;5040452;28;20220;-88
2021/10/29 05:25:02;;;;;;;3.50;3.20;;;11.00;99.90;;;;;;5037639;28;20201;-89
2021/10/29 05:27:33;;;;;;;3.23;2.57;;;11.00;99.90;;;;;;5040486;28;20225;-87
2021/10/29 05:30:06;;;;;;;4.77;1.50;;;10.90;99.90;;;;;;5042474;28;20242;-87
2021/10/29 05:32:37;;;;;;;1.70;0.93;;;10.90;99.90;;;;;;5038725;28;20598;-88
2021/10/29 05:35:10;;;;;;;2.07;1.17;;;10.80;99.90;;;;;;5039534;28;20613;-86
2021/10/29 05:37:43;;;;;;;1.57;1.17;;;10.60;99.90;;;;;;5040391;28;20205;-88
2021/10/29 05:40:17;;;;;;;2.90;1.27;;;10.50;99.90;;;;;;5043545;28;20209;-88
2021/10/29 05:42:48;;;;;;;8.37;1.43;;;10.50;99.90;;;;;;5037672;28;20205;-88
2021/10/29 05:45:20;;;;;;;1.97;1.20;;;10.40;99.90;;;;;;5038893;28;20336;-88
2021/10/29 05:47:51;;;;;;;1.50;0.90;;;10.40;99.90;;;;;;5038134;28;20197;-88
2021/10/29 05:50:22;;;;;;;2.63;1.00;;;10.40;99.90;;;;;;5038405;28;20223;-88
2021/10/29 05:52:55;;;;;;;0.90;0.70;;;10.30;99.90;;;;;;5038538;28;20229;-88
2021/10/29 05:55:26;;;;;;;1.27;0.83;;;10.20;99.90;;;;;;5036984;28;20204;-88
2021/10/29 05:57:57;;;;;;;2.90;1.00;;;10.20;99.90;;;;;;5024463;28;20224;-88
2021/10/29 06:00:32;;;;;;;1.93;1.00;;;10.20;99.90;;;;;;5041153;28;20200;-87
2021/10/29 06:03:09;;;;;;;2.20;1.30;;;10.20;99.90;;;;;;5043003;28;20200;-88
2021/10/29 06:05:39;;;;;;;3.90;0.93;;;10.10;99.90;;;;;;5057435;28;20208;-87
2021/10/29 06:08:13;;;;;;;2.97;1.00;;;10.10;99.90;;;;;;5038144;28;20249;-87
2021/10/29 06:10:45;;;;;;;1.93;1.20;;;10.10;99.90;;;;;;5036254;28;20648;-87
2021/10/29 06:13:19;;;;;;;6.90;1.13;;;10.00;99.90;;;;;;5037909;28;20736;-87
2021/10/29 06:15:53;;;;;;;3.17;0.90;;;10.00;99.90;;;;;;5037150;28;20227;-89
2021/10/29 06:18:25;;;;;;;2.13;1.13;;;10.00;99.90;;;;;;5037612;28;20212;-88
2021/10/29 06:20:57;;;;;;;2.30;1.10;;;10.00;99.90;;;;;;5038133;28;20240;-86
2021/10/29 06:23:35;;;;;;;3.77;1.03;;;9.90;99.90;;;;;;5039153;28;20652;-86
2021/10/29 06:26:18;;;;;;;4.37;1.30;;;9.90;99.90;;;;;;5037945;28;20204;-87
2021/10/29 06:28:50;;;;;;;3.33;1.00;;;9.90;99.90;;;;;;5043400;28;20209;-87
2021/10/29 06:31:21;;;;;;;3.83;1.40;;;9.80;99.90;;;;;;5043692;28;20224;-85
2021/10/29 06:33:53;;;;;;;6.57;1.60;;;9.90;99.90;;;;;;5049145;28;20233;-86
2021/10/29 06:36:24;;;;;;;5.70;2.23;;;9.80;99.90;;;;;;5036301;28;20232;-87
2021/10/29 06:39:00;;;;;;;2.27;1.63;;;9.80;99.90;;;;;;5044731;28;20215;-87
2021/10/29 06:41:31;;;;;;;2.03;1.80;;;9.80;99.90;;;;;;5055382;28;20200;-87
2021/10/29 06:44:20;;;;;;;1.93;1.70;;;9.70;99.90;;;;;;5037179;28;20677;-88
2021/10/29 06:47:10;;;;;;;2.70;1.47;;;9.70;99.90;;;;;;5024357;28;20239;-88
2021/10/29 07:01:05;;;;;;;5.83;1.53;;;9.60;99.90;;;;;;5039104;28;20251;-87
2021/10/29 07:04:09;;;;;;;2.03;1.73;;;9.60;99.90;;;;;;5023820;28;20231;-87
2021/10/29 07:40:40;;;;;;;2.63;0.90;;;9.30;99.90;;;;;;5042717;28;20649;-87
2021/10/29 07:43:12;;;;;;;5.73;0.90;;;9.40;99.90;;;;;;5039867;28;20213;-87
2021/10/29 07:45:46;;;;;;;3.17;0.80;;;9.40;99.90;;;;;;5038944;28;20302;-87
2021/10/29 07:48:18;;;;;;;0.83;0.70;;;9.40;99.90;;;;;;5039249;28;20217;-86
2021/10/29 07:50:48;;;;;;;0.63;0.63;;;9.40;99.90;;;;;;5039090;28;20616;-86
2021/10/29 07:53:19;;;;;;;0.77;0.50;;;9.30;99.90;;;;;;5040177;28;20216;-86
2021/10/29 07:55:51;;;;;;;1.57;0.60;;;9.30;99.90;;;;;;5040091;28;20297;-87
2021/10/29 07:58:23;;;;;;;0.53;0.50;;;9.30;99.90;;;;;;5039303;28;20204;-86
2021/10/29 08:00:56;;;;;;;0.53;0.40;;;9.30;99.90;;;;;;5040723;28;20220;-86
2021/10/29 08:03:28;;;;;;;1.07;0.50;;;9.20;99.90;;;;;;5038811;28;20204;-87
2021/10/29 08:06:00;;;;;;;1.13;0.40;;;9.20;99.90;;;;;;5041627;28;20288;-86
2021/10/29 08:08:31;;;;;;;1.40;0.40;;;9.20;99.90;;;;;;5039706;28;20247;-87
2021/10/29 08:11:02;;;;;;;1.60;0.40;;;9.20;99.90;;;;;;5039217;28;20239;-87
2021/10/29 08:13:33;;;;;;;1.73;0.40;;;9.20;99.90;;;;;;5021569;28;20235;-87
2021/10/29 08:16:06;;;;;;;3.43;0.50;;;9.10;99.90;;;;;;5038715;28;20240;-87
2021/10/29 08:18:44;;;;;;;0.40;0.33;;;9.20;99.90;;;;;;5039439;28;20251;-87
2021/10/29 08:21:15;;;;;;;1.17;0.30;;;9.20;99.90;;;;;;5039291;28;20204;-87
2021/10/29 08:23:46;;;;;;;2.20;0.97;;;9.10;99.90;;;;;;5039895;28;20635;-87
2021/10/29 08:26:18;;;;;;;2.00;0.23;;;9.10;99.90;;;;;;5038926;28;20200;-87
2021/10/29 08:28:49;;;;;;;0.40;0.30;;;9.00;99.90;;;;;;5040495;28;20204;-87
2021/10/29 08:31:22;;;;;;;2.87;0.50;;;9.10;99.90;;;;;;5037350;28;20204;-87
2021/10/29 08:33:54;;;;;;;0.70;0.30;;;9.00;99.90;;;;;;5037799;28;20252;-86
2021/10/29 08:36:25;;;;;;;2.77;0.40;;;9.00;99.90;;;;;;5037920;28;20258;-87
2021/10/29 08:38:56;;;;;;;1.30;0.60;;;9.10;99.90;;;;;;5039091;28;20238;-87
2021/10/29 08:41:32;;;;;;;1.90;0.30;;;9.00;99.90;;;;;;5039586;28;20215;-86
2021/10/29 08:44:05;;;;;;;4.00;0.50;;;9.00;99.90;;;;;;5035669;28;20296;-87
2021/10/29 08:46:39;;;;;;;0.87;0.40;;;9.00;99.90;;;;;;5051042;28;20211;-84
2021/10/29 08:49:11;;;;;;;3.80;0.70;;;9.00;99.90;;;;;;5053893;28;20244;-87
2021/10/29 08:51:42;;;;;;;1.10;0.60;;;9.00;99.90;;;;;;5053519;28;20193;-85
2021/10/29 08:54:13;;;;;;;1.50;0.40;;;9.00;99.90;;;;;;5045225;28;20239;-86
2021/10/29 08:56:45;;;;;;;1.20;0.50;;;9.00;99.90;;;;;;5055700;28;20191;-87
2021/10/29 08:59:19;;;;;;;0.77;0.57;;;8.90;99.90;;;;;;5055772;28;20224;-86
2021/10/29 09:01:56;;;;;;;1.93;0.50;;;9.00;99.90;;;;;;5051274;28;20238;-87
2021/10/29 09:04:37;;;;;;;2.13;0.40;;;9.00;99.90;;;;;;5034153;28;20667;-86
2021/10/29 09:10:22;;;;;;;3.00;0.67;;;8.90;99.90;;;;;;5050208;28;20572;-86
2021/10/29 09:32:55;;;;;;;2.30;0.43;;;8.90;99.90;;;;;;5040826;28;20229;-87
2021/10/29 09:35:30;;;;;;;1.80;0.50;;;8.90;99.90;;;;;;5039934;28;20291;-86
2021/10/29 09:38:05;;;;;;;2.00;0.80;;;8.90;99.90;;;;;;5040342;28;20201;-85
2021/10/29 09:40:39;;;;;;;3.93;0.70;;;8.90;99.90;;;;;;5039271;28;20347;-85
2021/10/29 09:43:14;;;;;;;3.67;0.77;;;8.90;99.90;;;;;;5021640;28;20217;-86
2021/10/29 09:45:49;;;;;;;4.80;0.70;;;9.00;99.90;;;;;;5039330;28;20208;-85
2021/10/29 09:48:24;;;;;;;1.10;0.67;;;9.00;99.90;;;;;;5033116;28;20207;-86
2021/10/29 09:50:59;;;;;;;0.73;0.60;;;8.90;99.90;;;;;;5040540;28;20251;-86
2021/10/29 09:53:45;;;;;;;0.80;0.80;;;8.90;99.90;;;;;;5039711;28;20592;-85
2021/10/29 09:56:22;;;;;;;8.00;0.90;;;8.90;99.90;;;;;;5017875;28;20709;-86
2021/10/29 09:58:55;;;;;;;0.80;0.70;;;9.00;99.90;;;;;;5024472;28;20286;-86
2021/10/29 10:01:27;;;;;;;0.70;0.70;;;8.90;99.90;;;;;;5039611;28;20270;-87
2021/10/29 10:04:02;;;;;;;2.40;0.80;;;8.90;99.90;;;;;;5037472;28;20684;-86
2021/10/29 10:06:40;;;;;;;0.97;0.70;;;8.90;99.90;;;;;;5037164;28;20200;-86
2021/10/29 10:09:11;;;;;;;1.27;0.57;;;8.90;99.90;;;;;;5039110;28;20635;-88
2021/10/29 10:11:49;;;;;;;1.87;0.70;;;8.90;99.90;;;;;;5038521;28;20205;-88
2021/10/29 10:14:21;;;;;;;0.47;0.43;;;8.80;99.90;;;;;;5049212;28;20204;-87
2021/10/29 10:16:52;;;;;;;2.10;0.40;;;8.80;99.90;;;;;;5053758;28;20209;-86
2021/10/29 10:19:24;;;;;;;2.40;0.60;;;8.80;99.90;;;;;;5055049;28;20209;-86
2021/10/29 10:21:59;;;;;;;2.70;0.60;;;8.80;99.90;;;;;;5044586;28;20237;-87
2021/10/29 10:24:32;;;;;;;1.13;0.70;;;8.80;99.90;;;;;;5041793;28;20212;-86
2021/10/29 10:27:32;;;;;;;2.20;0.60;;;8.80;99.90;;;;;;5039864;28;20212;-85
2021/10/29 10:30:12;;;;;;;2.37;0.90;;;8.70;99.90;;;;;;5038514;28;20216;-87
2021/10/29 10:44:32;;;;;;;0.60;0.50;;;8.70;99.90;;;;;;4996654;28;20246;-87
2021/10/29 10:47:05;;;;;;;4.40;0.90;;;8.70;99.90;;;;;;5007546;28;20219;-87
2021/10/29 10:49:42;;;;;;;2.40;0.80;;;8.70;99.90;;;;;;5037321;28;20237;-86
2021/10/29 10:52:17;;;;;;;0.80;0.67;;;8.70;99.90;;;;;;5038494;28;20236;-86
2021/10/29 10:54:59;;;;;;;0.60;0.60;;;8.70;99.90;;;;;;5052008;28;20226;-87
2021/10/29 10:57:39;;;;;;;2.00;0.63;;;8.70;99.90;;;;;;5036780;28;20218;-91
2021/10/29 11:00:17;;;;;;;0.40;0.40;;;8.70;99.90;;;;;;5042199;28;20236;-87
2021/10/29 11:11:27;;;;;;;1.00;0.60;;;8.60;99.90;;;;;;5037149;28;20207;-87
2021/10/29 11:14:03;;;;;;;1.80;0.70;;;8.70;99.90;;;;;;5039668;28;20215;-87
2021/10/29 11:16:37;;;;;;;1.90;0.43;;;8.70;99.90;;;;;;5015884;28;20339;-87
2021/10/29 11:19:13;;;;;;;0.50;0.50;;;8.70;99.90;;;;;;5025235;28;20226;-87
2021/10/29 11:21:52;;;;;;;0.63;0.50;;;8.60;99.90;;;;;;5036687;28;20207;-88
2021/10/29 11:24:30;;;;;;;0.73;0.60;;;8.60;99.90;;;;;;5036626;28;20243;-86
2021/10/29 11:27:15;;;;;;;4.73;0.60;;;8.60;99.90;;;;;;5035518;28;20210;-87
2021/10/29 11:29:51;;;;;;;0.87;0.70;;;8.60;99.90;;;;;;5060055;22;20266;-87
2021/10/29 11:32:24;;;;;;;1.17;0.67;;;8.70;99.90;;;;;;5056288;28;20285;-88
2021/10/29 11:34:59;;;;;;;1.27;0.80;;;8.70;99.90;;;;;;5056656;28;20619;-87
2021/10/29 11:37:35;;;;;;;1.13;0.70;;;8.70;99.90;;;;;;5055880;28;20219;-87
2021/10/29 11:40:08;;;;;;;5.00;0.70;;;8.70;99.90;;;;;;5056377;28;20207;-87
2021/10/29 11:42:42;;;;;;;2.03;0.53;;;8.70;99.90;;;;;;5055264;28;20251;-87
2021/10/29 11:45:15;;;;;;;3.63;0.67;;;8.70;99.90;;;;;;5054828;28;20217;-87
2021/10/29 11:47:56;;;;;;;1.27;0.80;;;8.70;99.90;;;;;;5085479;22;20251;-87
2021/10/29 11:50:28;;;;;;;3.67;0.87;;;8.80;99.90;;;;;;5053879;28;20208;-86
2021/10/29 11:53:02;;;;;;;7.60;0.80;;;8.70;99.90;;;;;;5055414;28;20228;-87
2021/10/29 11:55:41;;;;;;;1.90;0.70;;;8.70;99.90;;;;;;5054857;28;20336;-87
2021/10/29 11:58:20;;;;;;;2.00;0.50;;;8.80;99.90;;;;;;5055792;28;20240;-87
2021/10/29 12:01:08;;;;;;;0.70;0.70;;;8.80;99.90;;;;;;5035984;28;20303;-86
2021/10/29 12:09:29;;;;;;;0.60;0.50;;;8.80;99.90;;;;;;5056988;28;20235;-86
2021/10/29 12:12:04;;;;;;;0.40;0.37;;;8.70;99.90;;;;;;5042540;28;20239;-88
2021/10/29 12:14:39;;;;;;;0.40;0.37;;;8.70;99.90;;;;;;5059154;28;20284;-87
2021/10/29 12:17:15;;;;;;;1.27;0.60;;;8.60;99.90;;;;;;5059156;28;20251;-87
2021/10/29 12:19:50;;;;;;;0.47;0.40;;;8.60;99.90;;;;;;5059116;28;20207;-88
2021/10/29 12:22:33;;;;;;;7.63;0.80;;;8.60;99.90;;;;;;5061450;28;20215;-87
2021/10/29 12:25:12;;;;;;;0.93;0.50;;;8.70;99.90;;;;;;5060541;28;20208;-88
2021/10/29 12:27:46;;;;;;;4.23;0.70;;;8.70;99.90;;;;;;5043515;28;20606;-87
2021/10/29 12:59:15;;;;;;;2.30;1.43;;;8.60;99.90;;;;;;5057974;28;20292;-86
2021/10/29 13:01:54;;;;;;;2.90;1.30;;;8.60;99.90;;;;;;5058039;28;20234;-87
2021/10/29 13:04:40;;;;;;;1.60;1.50;;;8.70;99.90;;;;;;5060526;28;20242;-87
2021/10/29 13:07:11;;;;;;;9.43;2.67;;;8.70;99.90;;;;;;5060715;28;20211;-86
2021/10/29 13:09:43;;;;;;;4.23;1.67;;;8.70;99.90;;;;;;5061982;28;20291;-88
2021/10/29 13:12:17;;;;;;;7.80;1.90;;;8.70;99.90;;;;;;5061143;28;20610;-87
2021/10/29 13:14:52;;;;;;;1.63;1.53;;;8.70;99.90;;;;;;5059033;28;20207;-86
2021/10/29 13:17:29;;;;;;;6.03;1.70;;;8.70;99.90;;;;;;5058176;28;20235;-87
2021/10/29 13:20:39;;;;;;;4.40;1.70;;;8.70;99.90;;;;;;5057524;28;20612;-88
2021/10/29 13:28:43;;;;;;;7.00;1.30;;;8.70;99.90;;;;;;5057855;28;20250;-88
2021/10/29 13:34:30;;;;;;;1.80;1.20;;;8.70;99.90;;;;;;5054617;28;20204;-87
2021/10/29 13:37:13;;;;;;;3.50;1.13;;;8.60;99.90;;;;;;5039339;28;20311;-87
2021/10/29 13:51:20;;;;;;;3.77;0.80;;;8.50;99.90;;;;;;5059286;28;20226;-87
2021/10/29 13:54:02;;;;;;;2.60;0.83;;;8.50;99.90;;;;;;5058994;28;20587;-85
2021/10/29 13:56:47;;;;;;;5.53;0.70;;;8.40;99.90;;;;;;5026020;28;20323;-87
2021/10/29 14:02:36;;;;;;;4.37;0.70;;;8.40;99.90;;;;;;5050751;28;20612;-86
2021/10/29 14:30:39;;;;;;;1.00;0.80;;;8.40;99.90;;;;;;5135889;28;20525;-87
2021/10/29 14:33:15;;;;;;;2.00;0.60;;;8.50;99.90;;;;;;5138336;28;20208;-88
2021/10/29 14:35:51;;;;;;;1.27;0.70;;;8.40;99.90;;;;;;5135442;28;20628;-87
2021/10/29 14:38:38;;;;;;;1.93;1.40;;;8.40;99.90;;;;;;5127300;28;20236;-87
2021/10/29 14:41:15;;;;;;;2.13;1.70;;;8.50;99.90;;;;;;5114032;28;20206;-87
2021/10/29 14:43:49;;;;;;;4.23;1.17;;;8.40;99.90;;;;;;5095965;28;20243;-88
2021/10/29 14:46:35;;;;;;;3.27;1.67;;;8.40;99.90;;;;;;5124567;28;20231;-87
2021/10/29 15:06:29;;;;;;;2.20;1.30;;;8.30;99.90;;;;;;5132208;28;20232;-87
2021/10/29 15:29:06;;;;;;;1.90;1.40;;;8.20;99.90;;;;;;5112931;28;20659;-87
2021/10/29 15:43:12;;;;;;;2.03;1.43;;;8.30;99.90;;;;;;5123071;28;20600;-86
2021/10/29 15:45:45;;;;;;;4.90;1.63;;;8.30;99.90;;;;;;5127494;28;20209;-87
2021/10/29 15:48:20;;;;;;;10.03;1.80;;;8.30;99.90;;;;;;5127952;28;20289;-87
2021/10/29 15:50:53;;;;;;;4.33;1.63;;;8.30;99.90;;;;;;5118973;28;20198;-89
2021/10/29 15:53:25;;;;;;;5.20;2.20;;;8.30;99.90;;;;;;5131834;28;20247;-89
2021/10/29 15:55:58;;;;;;;6.50;2.10;;;8.30;99.90;;;;;;5123586;28;20237;-87
2021/10/29 15:58:36;;;;;;;3.77;1.77;;;8.30;99.90;;;;;;5137699;28;20225;-89
2021/10/29 16:01:14;;;;;;;2.13;1.90;;;8.30;99.90;;;;;;5117822;28;20221;-86
2021/10/29 16:03:55;;;;;;;3.03;2.07;;;8.30;99.90;;;;;;5118538;28;20199;-86
2021/10/29 16:17:41;;;;;;;3.60;2.53;;;8.30;99.90;;;;;;5113997;28;20205;-88
2021/10/29 16:20:13;;;;;;;4.47;2.17;;;8.30;99.90;;;;;;5114511;28;20198;-88
2021/10/29 16:22:45;;;;;;;7.10;2.80;;;8.30;99.90;;;;;;5112930;28;20262;-87
2021/10/29 16:25:18;;;;;;;5.57;2.67;;;8.30;99.90;;;;;;5112978;28;20263;-87
2021/10/29 16:27:55;;;;;;;6.30;2.77;;;8.40;99.90;;;;;;5134295;28;20257;-88
2021/10/29 16:30:31;;;;;;;5.17;3.57;;;8.40;99.90;;;;;;5113816;28;20202;-88
2021/10/29 16:36:05;;;;;;;10.17;5.40;;;8.40;99.90;;;;;;5118995;28;20212;-88
2021/10/29 16:38:38;;;;;;;10.57;6.23;;;8.40;99.90;;;;;;5110137;28;20233;-88
2021/10/29 16:41:10;;;;;;;9.47;6.30;;;8.50;99.90;;;;;;5108315;28;20233;-88
2021/10/29 16:43:42;;;;;;;7.23;5.10;;;8.60;99.90;;;;;;5110291;28;20206;-87
2021/10/29 16:46:16;;;;;;;6.53;5.33;;;8.70;99.90;;;;;;5093301;28;20237;-88
2021/10/29 16:48:48;;;;;;;7.00;4.80;;;8.70;99.90;;;;;;5105819;28;20206;-88
2021/10/29 16:51:20;;;;;;;7.20;5.07;;;8.70;99.90;;;;;;5103592;28;20230;-88
2021/10/29 16:53:51;;;;;;;5.40;4.43;;;8.80;99.90;;;;;;5112696;28;20195;-88
2021/10/29 16:59:31;;;;;;;3.47;2.93;;;8.80;99.90;;;;;;5117748;28;20226;-88
2021/10/29 17:02:08;;;;;;;4.97;3.23;;;8.90;99.90;;;;;;5116278;28;20202;-87
2021/10/29 17:04:40;;;;;;;4.00;2.67;;;8.90;99.90;;;;;;5129829;28;20226;-87
2021/10/29 17:07:12;;;;;;;3.80;2.57;;;8.80;99.90;;;;;;5108977;28;20202;-88
2021/10/29 17:09:44;;;;;;;5.57;3.33;;;8.90;99.90;;;;;;5116904;28;20207;-88
2021/10/29 17:12:17;;;;;;;3.50;2.73;;;8.80;99.90;;;;;;5123912;28;20229;-87
2021/10/29 17:14:52;;;;;;;3.80;3.03;;;8.90;99.90;;;;;;5114041;28;20283;-89
2021/10/29 17:17:26;;;;;;;6.87;2.83;;;9.00;99.90;;;;;;5122965;28;20220;-88
2021/10/29 17:19:57;;;;;;;5.50;2.80;;;9.10;99.90;;;;;;5131620;28;20229;-88
2021/10/29 17:22:28;;;;;;;2.83;2.10;;;9.20;99.90;;;;;;5131444;28;20226;-87
2021/10/29 17:25:00;;;;;;;2.67;2.00;;;9.20;99.90;;;;;;5131117;28;20202;-87
2021/10/29 17:27:34;;;;;;;2.93;1.70;;;9.30;99.90;;;;;;5122126;28;20217;-86
2021/10/29 17:30:07;;;;;;;3.03;2.20;;;9.30;99.90;;;;;;5111857;28;20207;-87
2021/10/29 17:32:40;;;;;;;9.93;2.97;;;9.40;99.90;;;;;;5112176;28;20225;-88
2021/10/29 17:35:12;;;;;;;8.57;2.50;;;9.50;99.90;;;;;;5110182;28;20207;-86
2021/10/29 17:37:45;;;;;;;1.80;1.60;;;9.60;99.90;;;;;;5094739;28;20207;-89
2021/10/29 17:40:18;;;;;;;1.53;1.33;;;9.60;99.90;;;;;;5120548;28;20230;-88
2021/10/29 17:42:50;;;;;;;3.43;1.60;;;9.70;99.90;;;;;;5114883;28;20213;-89
2021/10/29 17:45:23;;;;;;;1.90;1.50;;;9.80;99.90;;;;;;5133933;28;20206;-88
2021/10/29 17:48:02;;;;;;;2.17;1.73;;;9.80;99.90;;;;;;5136349;28;20208;-88
2021/10/29 17:50:35;;;;;;;3.23;1.90;;;9.90;99.90;;;;;;5120189;28;20193;-87
2021/10/29 17:53:06;;;;;;;2.67;1.73;;;10.00;99.90;;;;;;5137718;28;20182;-89
2021/10/29 17:55:38;;;;;;;5.90;2.20;;;10.00;99.90;;;;;;5134836;28;20217;-88
2021/10/29 17:58:09;;;;;;;2.53;1.90;;;10.00;99.90;;;;;;5131553;28;20246;-89
2021/10/29 18:00:43;;;;;;;4.53;2.10;;;10.10;99.90;;;;;;5135478;28;20262;-88
2021/10/29 18:03:16;;;;;;;3.03;2.30;;;10.10;99.90;;;;;;5130793;28;20206;-88
2021/10/29 18:05:49;;;;;;;2.77;2.20;;;10.10;99.90;;;;;;5127893;28;20206;-88
2021/10/29 18:08:23;;;;;;;3.77;2.03;;;10.10;99.90;;;;;;5130190;28;20206;-88
2021/10/29 18:10:54;;;;;;;5.40;2.83;;;10.20;99.90;;;;;;5124873;28;20201;-88
2021/10/29 18:13:26;;;;;;;2.63;2.07;;;10.30;99.90;;;;;;5125315;28;20198;-87
2021/10/29 18:15:59;;;;;;;2.47;2.07;;;10.30;99.90;;;;;;5132601;28;20283;-87
2021/10/29 18:18:33;;;;;;;1.80;1.60;;;10.40;99.90;;;;;;5130716;28;20206;-88
2021/10/29 18:21:09;;;;;;;1.97;1.53;;;10.40;99.90;;;;;;5131218;28;20230;-88
2021/10/29 18:23:42;;;;;;;1.97;1.70;;;10.30;99.90;;;;;;5131210;28;20205;-87
2021/10/29 18:26:15;;;;;;;2.00;1.40;;;10.30;99.90;;;;;;5131015;28;20236;-87
2021/10/29 18:28:46;;;;;;;1.80;1.60;;;10.20;99.90;;;;;;5131366;28;20260;-86